createdAt,value
2023-04-22T00:02:37.357Z,97337.34
2023-04-22T00:06:39.507Z,97327.50
2023-04-22T00:10:41.518Z,97324.81
2023-04-22T00:14:43.597Z,97323.69
2023-04-22T00:18:45.683Z,97324.72
2023-04-22T00:22:48.233Z,97318.69
2023-04-22T00:26:50.444Z,97323.69
2023-04-22T00:30:52.494Z,97321.31
2023-04-22T00:34:54.596Z,97319.84
2023-04-22T00:38:57.021Z,97311.44
2023-04-22T00:43:00.165Z,97315.19
2023-04-22T00:47:02.349Z,97313.78
2023-04-22T00:51:05.601Z,97315.13
2023-04-22T00:55:08.477Z,97315.81
2023-04-22T00:59:10.889Z,97318.16
2023-04-22T01:03:13.113Z,97308.22
2023-04-22T01:07:15.490Z,97308.78
2023-04-22T01:11:17.672Z,97306.88
2023-04-22T01:15:20.217Z,97310.94
2023-04-22T01:19:23.708Z,97316.84
2023-04-22T01:23:25.805Z,97301.78
2023-04-22T01:27:28.080Z,97300.84
2023-04-22T01:31:30.512Z,97313.81
2023-04-22T01:35:37.003Z,97307.50
2023-04-22T01:39:39.747Z,97321.50
2023-04-22T01:43:42.920Z,97316.16
2023-04-22T01:47:45.008Z,97329.19
2023-04-22T01:51:47.127Z,97321.28
2023-04-22T01:55:49.220Z,97312.47
2023-04-22T01:59:51.282Z,97329.03
2023-04-22T02:03:53.467Z,97326.38
2023-04-22T02:07:55.626Z,97333.50
2023-04-22T02:11:57.649Z,97324.13
2023-04-22T02:15:59.771Z,97332.09
2023-04-22T02:20:02.972Z,97330.72
2023-04-22T02:24:05.804Z,97330.09
2023-04-22T02:28:07.904Z,97330.53
2023-04-22T02:32:09.991Z,97333.25
2023-04-22T02:36:12.289Z,97323.66
2023-04-22T02:40:14.367Z,97322.41
2023-04-22T02:44:16.400Z,97316.22
2023-04-22T02:48:18.435Z,97327.47
2023-04-22T02:52:20.710Z,97330.16
2023-04-22T02:56:22.808Z,97320.78
2023-04-22T03:00:25.193Z,97326.09
2023-04-22T03:04:27.598Z,97321.72
2023-04-22T03:08:29.930Z,97328.47
2023-04-22T03:12:31.960Z,97323.03
2023-04-22T03:16:35.244Z,97319.84
2023-04-22T03:20:40.478Z,97316.25
2023-04-22T03:24:42.623Z,97331.69
2023-04-22T03:28:45.681Z,97324.72
2023-04-22T03:32:47.863Z,97323.41
2023-04-22T03:37:00.383Z,97323.94
2023-04-22T03:41:02.843Z,97330.31
2023-04-22T03:45:15.218Z,97330.38
2023-04-22T03:49:21.913Z,97327.16
2023-04-22T03:53:24.352Z,97332.59
2023-04-22T03:57:27.173Z,97333.44
2023-04-22T04:01:29.648Z,97338.50
2023-04-22T04:05:35.816Z,97338.19
2023-04-22T04:09:38.697Z,97336.28
2023-04-22T04:13:41.314Z,97338.91
2023-04-22T04:18:01.343Z,97334.69
2023-04-22T04:22:06.840Z,97337.41
2023-04-22T04:26:15.029Z,97335.69
2023-04-22T04:30:21.604Z,97322.94
2023-04-22T04:34:28.717Z,97330.06
2023-04-22T04:38:32.234Z,97325.66
2023-04-22T04:42:34.372Z,97322.75
2023-04-22T04:46:41.199Z,97323.34
2023-04-22T04:50:44.390Z,97311.66
2023-04-22T04:54:46.886Z,97310.44
2023-04-22T04:58:49.229Z,97317.13
2023-04-22T05:02:58.223Z,97320.41
2023-04-22T05:07:00.554Z,97312.75
2023-04-22T05:11:04.384Z,97311.28
2023-04-22T05:15:07.280Z,97317.19
2023-04-22T05:19:09.491Z,97312.59
2023-04-22T05:23:11.753Z,97316.72
2023-04-22T05:27:14.037Z,97320.84
2023-04-22T05:31:16.154Z,97318.81
2023-04-22T05:35:18.778Z,97322.00
2023-04-22T05:39:21.087Z,97314.78
2023-04-22T05:43:24.607Z,97326.72
2023-04-22T05:47:33.404Z,97335.97
2023-04-22T05:51:36.087Z,97343.47
2023-04-22T05:55:38.559Z,97334.16
2023-04-22T05:59:43.330Z,97343.84
2023-04-22T06:03:45.901Z,97338.00
2023-04-22T06:07:48.276Z,97342.47
2023-04-22T06:11:50.278Z,97336.56
2023-04-22T06:15:52.452Z,97328.91
2023-04-22T06:19:54.873Z,97340.47
2023-04-22T06:23:57.029Z,97335.97
2023-04-22T06:27:59.646Z,97337.16
2023-04-22T06:32:03.389Z,97338.19
2023-04-22T06:36:06.690Z,97325.31
2023-04-22T06:40:10.767Z,97318.72
2023-04-22T06:44:32.121Z,97320.69
2023-04-22T06:49:03.243Z,97314.47
2023-04-22T06:53:23.142Z,97323.41
2023-04-22T06:57:25.319Z,97315.34
2023-04-22T07:01:27.605Z,97311.53
2023-04-22T07:05:29.906Z,97314.44
2023-04-22T07:09:33.840Z,97313.13
2023-04-22T07:13:36.163Z,97311.38
2023-04-22T07:17:38.215Z,97315.34
2023-04-22T07:21:40.230Z,97312.91
2023-04-22T07:25:42.313Z,97310.09
2023-04-22T07:29:44.313Z,97314.81
2023-04-22T07:33:46.362Z,97322.63
2023-04-22T07:37:48.389Z,97324.31
2023-04-22T07:41:51.255Z,97323.34
2023-04-22T07:45:53.394Z,97325.97
2023-04-22T07:49:55.566Z,97329.97
2023-04-22T07:53:57.651Z,97319.78
2023-04-22T07:58:06.247Z,97314.47
2023-04-22T08:02:08.351Z,97316.16
2023-04-22T08:06:10.504Z,97311.25
2023-04-22T08:10:12.552Z,97315.47
2023-04-22T08:14:14.622Z,97317.63
2023-04-22T08:18:16.672Z,97307.06
2023-04-22T08:22:18.905Z,97309.69
2023-04-22T08:26:21.426Z,97300.78
2023-04-22T08:30:23.664Z,97300.53
2023-04-22T08:34:27.608Z,97294.72
2023-04-22T08:38:29.714Z,97296.88
2023-04-22T08:42:31.999Z,97292.28
2023-04-22T08:46:34.628Z,97282.88
2023-04-22T08:50:39.450Z,97283.81
2023-04-22T08:54:42.032Z,97284.44
2023-04-22T08:58:44.152Z,97283.88
2023-04-22T09:02:47.089Z,97279.44
2023-04-22T09:06:49.146Z,97288.03
2023-04-22T09:10:51.271Z,97282.44
2023-04-22T09:14:54.526Z,97284.41
2023-04-22T09:18:56.822Z,97280.69
2023-04-22T09:23:05.102Z,97280.41
2023-04-22T09:27:07.253Z,97286.44
2023-04-22T09:31:14.576Z,97281.84
2023-04-22T09:35:16.687Z,97294.88
2023-04-22T09:39:18.687Z,97287.34
2023-04-22T09:43:20.762Z,97296.44
2023-04-22T09:47:25.509Z,97293.16
2023-04-22T09:51:28.625Z,97296.03
2023-04-22T09:55:33.826Z,97303.38
2023-04-22T09:59:35.809Z,97309.81
2023-04-22T10:03:37.873Z,97298.66
2023-04-22T10:07:39.905Z,97295.31
2023-04-22T10:11:41.943Z,97300.22
2023-04-22T10:15:56.493Z,97291.00
2023-04-22T10:20:04.815Z,97287.06
2023-04-22T10:24:07.035Z,97274.25
2023-04-22T10:28:11.250Z,97275.94
2023-04-22T10:32:19.500Z,97277.88
2023-04-22T10:36:21.543Z,97270.31
2023-04-22T10:40:23.636Z,97279.41
2023-04-22T10:44:28.962Z,97273.38
2023-04-22T10:48:50.418Z,97261.91
2023-04-22T10:53:03.132Z,97259.94
2023-04-22T10:57:10.516Z,97254.34
2023-04-22T11:01:15.770Z,97253.81
2023-04-22T11:05:20.159Z,97252.53
2023-04-22T11:09:24.332Z,97240.84
2023-04-22T11:13:26.619Z,97245.31
2023-04-22T11:17:28.809Z,97237.06
2023-04-22T11:21:31.614Z,97242.09
2023-04-22T11:25:33.781Z,97236.06
2023-04-22T11:29:36.070Z,97233.56
2023-04-22T11:33:41.259Z,97234.06
2023-04-22T11:37:44.371Z,97222.91
2023-04-22T11:41:46.427Z,97231.56
2023-04-22T11:45:48.484Z,97229.75
2023-04-22T11:49:58.063Z,97223.69
2023-04-22T11:54:00.747Z,97210.88
2023-04-22T11:58:11.568Z,97211.72
2023-04-22T12:02:13.709Z,97203.28
2023-04-22T12:06:16.422Z,97198.75
2023-04-22T12:10:18.470Z,97192.22
2023-04-22T12:14:20.629Z,97193.31
2023-04-22T12:18:53.079Z,97191.66
2023-04-22T12:22:55.102Z,97185.00
2023-04-22T12:26:57.167Z,97190.72
2023-04-22T12:30:59.312Z,97187.06
2023-04-22T12:35:01.386Z,97191.56
2023-04-22T12:39:04.783Z,97186.28
2023-04-22T12:43:06.861Z,97180.88
2023-04-22T12:47:09.871Z,97190.31
2023-04-22T12:51:11.902Z,97185.50
2023-04-22T12:55:14.022Z,97184.13
2023-04-22T12:59:16.107Z,97175.69
2023-04-22T13:03:18.270Z,97190.25
2023-04-22T13:07:20.562Z,97173.72
2023-04-22T13:11:24.485Z,97182.38
2023-04-22T13:15:26.651Z,97183.19
2023-04-22T13:19:29.618Z,97186.53
2023-04-22T13:23:32.537Z,97185.59
2023-04-22T13:27:34.982Z,97170.81
2023-04-22T13:31:38.537Z,97178.88
2023-04-22T13:35:40.681Z,97173.53
2023-04-22T13:39:42.880Z,97180.56
2023-04-22T13:43:45.111Z,97173.03
2023-04-22T13:47:47.228Z,97176.56
2023-04-22T13:51:49.331Z,97160.78
2023-04-22T13:55:51.356Z,97170.16
2023-04-22T13:59:53.357Z,97168.53
2023-04-22T14:03:55.599Z,97170.69
2023-04-22T14:07:59.416Z,97159.97
2023-04-22T14:12:03.106Z,97167.44
2023-04-22T14:16:10.173Z,97166.34
2023-04-22T14:20:12.207Z,97169.00
2023-04-22T14:24:14.491Z,97168.69
2023-04-22T14:28:16.636Z,97165.78
2023-04-22T14:32:21.951Z,97173.31
2023-04-22T14:36:24.038Z,97183.53
2023-04-22T14:40:28.336Z,97180.44
2023-04-22T14:44:30.764Z,97184.34
2023-04-22T14:48:35.337Z,97187.97
2023-04-22T14:52:37.472Z,97187.13
2023-04-22T14:56:39.613Z,97181.53
2023-04-22T15:00:41.616Z,97177.88
2023-04-22T15:04:43.900Z,97195.19
2023-04-22T15:08:46.060Z,97199.88
2023-04-22T15:12:48.097Z,97190.94
2023-04-22T15:16:50.234Z,97189.47
2023-04-22T15:20:52.272Z,97173.81
2023-04-22T15:24:54.296Z,97175.00
2023-04-22T15:28:56.375Z,97165.72
2023-04-22T15:32:58.441Z,97163.09
2023-04-22T15:37:00.544Z,97157.66
2023-04-22T15:41:02.659Z,97164.22
2023-04-22T15:45:05.399Z,97153.16
2023-04-22T15:49:07.447Z,97156.66
2023-04-22T15:53:09.426Z,97151.91
2023-04-22T15:57:11.507Z,97150.50
2023-04-22T16:01:19.528Z,97164.38
2023-04-22T16:05:24.564Z,97175.13
2023-04-22T16:09:26.776Z,97178.31
2023-04-22T16:13:28.804Z,97175.56
2023-04-22T16:17:30.836Z,97169.38
2023-04-22T16:21:33.084Z,97165.59
2023-04-22T16:25:35.208Z,97182.03
2023-04-22T16:29:37.271Z,97168.72
2023-04-22T16:33:39.321Z,97170.09
2023-04-22T16:37:41.758Z,97172.19
2023-04-22T16:41:43.839Z,97164.06
2023-04-22T16:45:45.912Z,97167.50
2023-04-22T16:49:47.998Z,97168.81
2023-04-22T16:53:50.153Z,97158.59
2023-04-22T16:57:52.252Z,97165.50
2023-04-22T17:01:54.691Z,97165.19
2023-04-22T17:05:56.924Z,97156.06
2023-04-22T17:09:59.015Z,97154.63
2023-04-22T17:14:01.103Z,97153.78
2023-04-22T17:18:05.712Z,97163.09
2023-04-22T17:22:07.777Z,97157.22
2023-04-22T17:26:09.876Z,97155.91
2023-04-22T17:30:12.359Z,97158.13
2023-04-22T17:34:14.528Z,97160.31
2023-04-22T17:38:16.617Z,97152.19
2023-04-22T17:42:18.977Z,97157.13
2023-04-22T17:46:21.144Z,97161.69
2023-04-22T17:50:23.751Z,97167.38
2023-04-22T17:54:25.847Z,97164.28
2023-04-22T17:58:27.970Z,97166.22
2023-04-22T18:02:30.153Z,97172.47
2023-04-22T18:06:32.439Z,97173.44
2023-04-22T18:10:34.488Z,97181.16
2023-04-22T18:14:36.557Z,97187.78
2023-04-22T18:18:38.934Z,97186.47
2023-04-22T18:22:42.064Z,97184.31
2023-04-22T18:26:46.963Z,97189.38
2023-04-22T18:30:49.033Z,97191.19
2023-04-22T18:34:51.084Z,97193.94
2023-04-22T18:38:53.404Z,97196.25
2023-04-22T18:42:55.517Z,97203.25
2023-04-22T18:46:57.718Z,97200.97
2023-04-22T18:51:00.142Z,97203.84
2023-04-22T18:55:02.468Z,97211.16
2023-04-22T18:59:04.537Z,97214.16
2023-04-22T19:03:07.086Z,97214.66
2023-04-22T19:07:09.286Z,97219.97
2023-04-22T19:11:11.411Z,97229.31
2023-04-22T19:15:14.147Z,97228.97
2023-04-22T19:19:16.176Z,97242.50
2023-04-22T19:23:18.287Z,97227.47
2023-04-22T19:27:20.388Z,97234.56
2023-04-22T19:31:22.667Z,97232.75
2023-04-22T19:35:27.092Z,97231.94
2023-04-22T19:39:30.125Z,97233.59
2023-04-22T19:43:32.245Z,97231.69
2023-04-22T19:47:34.922Z,97242.16
2023-04-22T19:51:39.133Z,97237.94
2023-04-22T19:55:43.335Z,97238.66
2023-04-22T19:59:46.998Z,97240.56
2023-04-22T20:03:49.702Z,97236.97
2023-04-22T20:07:52.704Z,97226.34
2023-04-22T20:11:55.206Z,97230.06
2023-04-22T20:15:58.714Z,97232.59
2023-04-22T20:20:05.315Z,97225.44
2023-04-22T20:24:07.882Z,97235.97
2023-04-22T20:28:10.783Z,97231.59
2023-04-22T20:32:13.006Z,97241.78
2023-04-22T20:36:16.767Z,97240.41
2023-04-22T20:40:20.082Z,97251.72
2023-04-22T20:44:22.600Z,97246.25
2023-04-22T20:48:24.636Z,97249.56
2023-04-22T20:52:26.705Z,97243.03
2023-04-22T20:56:28.773Z,97248.44
2023-04-22T21:00:30.829Z,97244.34
2023-04-22T21:04:33.668Z,97246.53
2023-04-22T21:08:36.785Z,97240.41
2023-04-22T21:12:39.164Z,97247.59
2023-04-22T21:16:44.862Z,97242.75
2023-04-22T21:20:51.280Z,97234.78
2023-04-22T21:24:53.795Z,97244.78
2023-04-22T21:28:56.590Z,97242.16
2023-04-22T21:32:58.657Z,97250.25
2023-04-22T21:37:01.158Z,97249.56
2023-04-22T21:41:03.371Z,97250.19
2023-04-22T21:45:06.005Z,97249.06
2023-04-22T21:49:08.310Z,97246.00
2023-04-22T21:53:11.159Z,97249.91
2023-04-22T21:57:13.293Z,97244.75
2023-04-22T22:01:15.771Z,97252.75
2023-04-22T22:05:18.656Z,97251.50
2023-04-22T22:09:21.495Z,97241.47
2023-04-22T22:13:23.685Z,97244.81
2023-04-22T22:17:26.107Z,97239.78
2023-04-22T22:21:28.251Z,97248.00
2023-04-22T22:25:30.378Z,97241.66
2023-04-22T22:29:32.439Z,97248.84
2023-04-22T22:33:39.274Z,97249.28
2023-04-22T22:37:43.527Z,97243.69
2023-04-22T22:41:45.693Z,97249.19
2023-04-22T22:45:47.891Z,97246.34
2023-04-22T22:49:50.175Z,97252.13
2023-04-22T22:53:52.289Z,97250.44
2023-04-22T22:57:54.317Z,97255.09
2023-04-22T23:01:58.029Z,97251.63
2023-04-22T23:06:00.708Z,97254.47
2023-04-22T23:10:02.930Z,97247.72
2023-04-22T23:14:04.970Z,97246.44
2023-04-22T23:18:08.955Z,97248.56
2023-04-22T23:22:12.684Z,97243.28
2023-04-22T23:26:15.203Z,97236.53
2023-04-22T23:30:17.538Z,97232.34
2023-04-22T23:34:23.619Z,97237.59
2023-04-22T23:38:25.660Z,97236.00
2023-04-22T23:42:27.679Z,97239.59
2023-04-22T23:46:29.857Z,97233.38
2023-04-22T23:50:32.003Z,97233.59
2023-04-22T23:54:34.310Z,97223.47
2023-04-22T23:58:36.986Z,97219.56
